sensor_id;sensor_type;location;lat;lon;timestamp;temperature;humidity
28530;DHT22;15737;49.760;6.632;2023-06-24T00:00:03;16.00;99.90
28530;DHT22;15737;49.760;6.632;2023-06-24T00:02:33;16.00;99.90
28530;DHT22;15737;49.760;6.632;2023-06-24T00:05:01;15.90;99.90
28530;DHT22;15737;49.760;6.632;2023-06-24T00:07:27;15.80;99.90
28530;DHT22;15737;49.760;6.632;2023-06-24T00:09:52;15.80;99.90
28530;DHT22;15737;49.760;6.632;2023-06-24T00:12:18;15.70;99.90
28530;DHT22;15737;49.760;6.632;2023-06-24T00:14:44;15.70;99.90
28530;DHT22;15737;49.760;6.632;2023-06-24T00:17:09;15.60;99.90
28530;DHT22;15737;49.760;6.632;2023-06-24T00:19:36;15.60;99.90
28530;DHT22;15737;49.760;6.632;2023-06-24T00:22:02;15.50;99.90
28530;DHT22;15737;49.760;6.632;2023-06-24T00:24:29;15.40;99.90
28530;DHT22;15737;49.760;6.632;2023-06-24T00:26:55;15.40;99.90
28530;DHT22;15737;49.760;6.632;2023-06-24T00:29:21;15.40;99.90
28530;DHT22;15737;49.760;6.632;2023-06-24T00:31:47;15.40;99.90
28530;DHT22;15737;49.760;6.632;2023-06-24T00:34:13;15.40;99.90
28530;DHT22;15737;49.760;6.632;2023-06-24T00:36:39;15.30;99.90
28530;DHT22;15737;49.760;6.632;2023-06-24T00:39:05;15.30;99.90
28530;DHT22;15737;49.760;6.632;2023-06-24T00:41:31;15.30;99.90
28530;DHT22;15737;49.760;6.632;2023-06-24T00:43:58;15.30;99.90
28530;DHT22;15737;49.760;6.632;2023-06-24T00:46:27;15.20;99.90
28530;DHT22;15737;49.760;6.632;2023-06-24T00:48:55;15.10;99.90
28530;DHT22;15737;49.760;6.632;2023-06-24T00:51:21;15.10;99.90
28530;DHT22;15737;49.760;6.632;2023-06-24T00:53:54;15.10;99.90
28530;DHT22;15737;49.760;6.632;2023-06-24T00:56:22;15.00;99.90
28530;DHT22;15737;49.760;6.632;2023-06-24T00:58:49;15.00;99.90
28530;DHT22;15737;49.760;6.632;2023-06-24T01:01:15;15.00;99.90
28530;DHT22;15737;49.760;6.632;2023-06-24T01:03:42;14.90;99.90
28530;DHT22;15737;49.760;6.632;2023-06-24T01:06:08;14.90;99.90
28530;DHT22;15737;49.760;6.632;2023-06-24T01:08:35;14.80;99.90
28530;DHT22;15737;49.760;6.632;2023-06-24T01:11:00;14.80;99.90
28530;DHT22;15737;49.760;6.632;2023-06-24T01:13:26;14.80;99.90
28530;DHT22;15737;49.760;6.632;2023-06-24T01:15:52;14.70;99.90
28530;DHT22;15737;49.760;6.632;2023-06-24T01:21:02;14.70;99.90
28530;DHT22;15737;49.760;6.632;2023-06-24T01:32:31;14.50;99.90
28530;DHT22;15737;49.760;6.632;2023-06-24T01:37:36;14.40;99.90
28530;DHT22;15737;49.760;6.632;2023-06-24T01:40:32;14.40;99.90
28530;DHT22;15737;49.760;6.632;2023-06-24T01:43:01;14.30;99.90
28530;DHT22;15737;49.760;6.632;2023-06-24T01:48:06;14.30;99.90
28530;DHT22;15737;49.760;6.632;2023-06-24T01:50:33;14.30;99.90
28530;DHT22;15737;49.760;6.632;2023-06-24T01:53:03;14.30;99.90
28530;DHT22;15737;49.760;6.632;2023-06-24T01:55:32;14.30;99.90
28530;DHT22;15737;49.760;6.632;2023-06-24T01:58:02;14.30;99.90
28530;DHT22;15737;49.760;6.632;2023-06-24T02:00:29;14.30;99.90
28530;DHT22;15737;49.760;6.632;2023-06-24T02:02:55;14.20;99.90
28530;DHT22;15737;49.760;6.632;2023-06-24T02:05:21;14.20;99.90
28530;DHT22;15737;49.760;6.632;2023-06-24T02:07:48;14.20;99.90
28530;DHT22;15737;49.760;6.632;2023-06-24T02:10:15;14.20;99.90
28530;DHT22;15737;49.760;6.632;2023-06-24T02:12:43;14.20;99.90
28530;DHT22;15737;49.760;6.632;2023-06-24T02:15:09;14.10;99.90
28530;DHT22;15737;49.760;6.632;2023-06-24T02:17:36;14.10;99.90
28530;DHT22;15737;49.760;6.632;2023-06-24T02:20:05;14.00;99.90
28530;DHT22;15737;49.760;6.632;2023-06-24T02:22:32;14.00;99.90
28530;DHT22;15737;49.760;6.632;2023-06-24T02:24:58;14.00;99.90
28530;DHT22;15737;49.760;6.632;2023-06-24T02:27:24;14.00;99.90
28530;DHT22;15737;49.760;6.632;2023-06-24T02:29:51;14.00;99.90
28530;DHT22;15737;49.760;6.632;2023-06-24T02:32:18;14.00;99.90
28530;DHT22;15737;49.760;6.632;2023-06-24T02:34:43;14.00;99.90
28530;DHT22;15737;49.760;6.632;2023-06-24T02:37:09;14.00;99.90
28530;DHT22;15737;49.760;6.632;2023-06-24T02:39:34;13.90;99.90
28530;DHT22;15737;49.760;6.632;2023-06-24T02:42:03;13.90;99.90
28530;DHT22;15737;49.760;6.632;2023-06-24T02:44:28;13.90;99.90
28530;DHT22;15737;49.760;6.632;2023-06-24T02:46:55;13.90;99.90
28530;DHT22;15737;49.760;6.632;2023-06-24T02:49:21;13.80;99.90
28530;DHT22;15737;49.760;6.632;2023-06-24T02:51:48;13.80;99.90
28530;DHT22;15737;49.760;6.632;2023-06-24T02:54:14;13.80;99.90
28530;DHT22;15737;49.760;6.632;2023-06-24T02:56:40;13.80;99.90
28530;DHT22;15737;49.760;6.632;2023-06-24T02:59:07;13.70;99.90
28530;DHT22;15737;49.760;6.632;2023-06-24T03:01:34;13.70;99.90
28530;DHT22;15737;49.760;6.632;2023-06-24T03:04:04;13.70;99.90
28530;DHT22;15737;49.760;6.632;2023-06-24T03:06:30;13.70;99.90
28530;DHT22;15737;49.760;6.632;2023-06-24T03:08:57;13.60;99.90
28530;DHT22;15737;49.760;6.632;2023-06-24T03:11:23;13.60;99.90
28530;DHT22;15737;49.760;6.632;2023-06-24T03:13:49;13.60;99.90
28530;DHT22;15737;49.760;6.632;2023-06-24T03:16:14;13.60;99.90
28530;DHT22;15737;49.760;6.632;2023-06-24T03:18:43;13.60;99.90
28530;DHT22;15737;49.760;6.632;2023-06-24T03:21:10;13.60;99.90
28530;DHT22;15737;49.760;6.632;2023-06-24T03:23:35;13.60;99.90
28530;DHT22;15737;49.760;6.632;2023-06-24T03:26:01;13.50;99.90
28530;DHT22;15737;49.760;6.632;2023-06-24T03:28:29;13.50;99.90
28530;DHT22;15737;49.760;6.632;2023-06-24T03:30:55;13.50;99.90
28530;DHT22;15737;49.760;6.632;2023-06-24T03:33:20;13.50;99.90
28530;DHT22;15737;49.760;6.632;2023-06-24T03:35:46;13.50;99.90
28530;DHT22;15737;49.760;6.632;2023-06-24T03:38:11;13.50;99.90
28530;DHT22;15737;49.760;6.632;2023-06-24T03:40:37;13.50;99.90
28530;DHT22;15737;49.760;6.632;2023-06-24T03:43:02;13.50;99.90
28530;DHT22;15737;49.760;6.632;2023-06-24T03:45:28;13.60;99.90
28530;DHT22;15737;49.760;6.632;2023-06-24T03:47:53;13.60;99.90
28530;DHT22;15737;49.760;6.632;2023-06-24T03:50:19;13.60;99.90
28530;DHT22;15737;49.760;6.632;2023-06-24T03:52:44;13.60;99.90
28530;DHT22;15737;49.760;6.632;2023-06-24T03:55:10;13.70;99.90
28530;DHT22;15737;49.760;6.632;2023-06-24T03:57:36;13.70;99.90
28530;DHT22;15737;49.760;6.632;2023-06-24T04:00:02;13.80;99.90
28530;DHT22;15737;49.760;6.632;2023-06-24T04:02:37;13.80;99.90
28530;DHT22;15737;49.760;6.632;2023-06-24T04:05:03;13.90;99.90
28530;DHT22;15737;49.760;6.632;2023-06-24T04:07:31;14.00;99.90
28530;DHT22;15737;49.760;6.632;2023-06-24T04:09:57;14.10;99.90
28530;DHT22;15737;49.760;6.632;2023-06-24T04:12:23;14.30;99.90
28530;DHT22;15737;49.760;6.632;2023-06-24T04:14:49;14.40;99.90
28530;DHT22;15737;49.760;6.632;2023-06-24T04:17:15;14.50;99.90
28530;DHT22;15737;49.760;6.632;2023-06-24T04:19:40;14.60;99.90
28530;DHT22;15737;49.760;6.632;2023-06-24T04:22:07;14.80;99.90
28530;DHT22;15737;49.760;6.632;2023-06-24T04:24:32;14.90;99.90
28530;DHT22;15737;49.760;6.632;2023-06-24T04:26:58;15.00;99.90
28530;DHT22;15737;49.760;6.632;2023-06-24T04:29:24;15.20;99.90
28530;DHT22;15737;49.760;6.632;2023-06-24T04:31:49;15.40;99.90
28530;DHT22;15737;49.760;6.632;2023-06-24T04:34:15;15.80;99.90
28530;DHT22;15737;49.760;6.632;2023-06-24T04:36:40;16.10;99.90
28530;DHT22;15737;49.760;6.632;2023-06-24T04:39:06;16.40;99.90
28530;DHT22;15737;49.760;6.632;2023-06-24T04:41:31;16.60;99.90
28530;DHT22;15737;49.760;6.632;2023-06-24T04:43:57;16.80;99.90
28530;DHT22;15737;49.760;6.632;2023-06-24T04:46:23;17.00;99.90
28530;DHT22;15737;49.760;6.632;2023-06-24T04:48:49;17.30;99.90
28530;DHT22;15737;49.760;6.632;2023-06-24T04:51:14;17.90;99.90
28530;DHT22;15737;49.760;6.632;2023-06-24T04:53:40;18.80;99.90
28530;DHT22;15737;49.760;6.632;2023-06-24T04:56:06;19.60;99.90
28530;DHT22;15737;49.760;6.632;2023-06-24T04:58:31;20.20;99.90
28530;DHT22;15737;49.760;6.632;2023-06-24T05:00:57;20.80;99.90
28530;DHT22;15737;49.760;6.632;2023-06-24T05:03:22;21.30;99.90
28530;DHT22;15737;49.760;6.632;2023-06-24T05:05:48;21.60;99.90
28530;DHT22;15737;49.760;6.632;2023-06-24T05:08:13;21.90;99.90
28530;DHT22;15737;49.760;6.632;2023-06-24T05:10:39;21.60;99.90
28530;DHT22;15737;49.760;6.632;2023-06-24T05:13:04;21.10;99.90
28530;DHT22;15737;49.760;6.632;2023-06-24T05:15:30;21.10;99.90
28530;DHT22;15737;49.760;6.632;2023-06-24T05:17:56;21.00;99.90
28530;DHT22;15737;49.760;6.632;2023-06-24T05:20:21;21.00;99.90
28530;DHT22;15737;49.760;6.632;2023-06-24T05:22:47;21.70;99.90
28530;DHT22;15737;49.760;6.632;2023-06-24T05:25:12;22.80;99.90
28530;DHT22;15737;49.760;6.632;2023-06-24T05:27:38;23.60;99.90
28530;DHT22;15737;49.760;6.632;2023-06-24T05:30:04;23.50;99.90
28530;DHT22;15737;49.760;6.632;2023-06-24T05:32:30;23.50;99.90
28530;DHT22;15737;49.760;6.632;2023-06-24T05:34:55;23.40;99.90
28530;DHT22;15737;49.760;6.632;2023-06-24T05:37:21;23.60;99.90
28530;DHT22;15737;49.760;6.632;2023-06-24T05:39:47;23.70;99.90
28530;DHT22;15737;49.760;6.632;2023-06-24T05:42:12;24.10;99.90
28530;DHT22;15737;49.760;6.632;2023-06-24T05:44:38;24.70;99.90
28530;DHT22;15737;49.760;6.632;2023-06-24T05:47:03;25.10;99.90
28530;DHT22;15737;49.760;6.632;2023-06-24T05:49:29;25.40;99.90
28530;DHT22;15737;49.760;6.632;2023-06-24T05:51:56;26.10;97.40
28530;DHT22;15737;49.760;6.632;2023-06-24T05:54:21;26.30;96.30
28530;DHT22;15737;49.760;6.632;2023-06-24T05:56:47;26.80;94.70
28530;DHT22;15737;49.760;6.632;2023-06-24T05:59:12;27.40;92.20
28530;DHT22;15737;49.760;6.632;2023-06-24T06:01:38;27.40;91.60
28530;DHT22;15737;49.760;6.632;2023-06-24T06:04:03;27.60;90.00
28530;DHT22;15737;49.760;6.632;2023-06-24T06:06:29;27.80;88.70
28530;DHT22;15737;49.760;6.632;2023-06-24T06:08:54;28.20;85.60
28530;DHT22;15737;49.760;6.632;2023-06-24T06:11:20;28.20;83.60
28530;DHT22;15737;49.760;6.632;2023-06-24T06:13:45;28.40;81.20
28530;DHT22;15737;49.760;6.632;2023-06-24T06:16:11;28.70;80.30
28530;DHT22;15737;49.760;6.632;2023-06-24T06:18:36;29.50;75.10
28530;DHT22;15737;49.760;6.632;2023-06-24T06:21:02;29.10;75.00
28530;DHT22;15737;49.760;6.632;2023-06-24T06:23:27;29.80;72.30
28530;DHT22;15737;49.760;6.632;2023-06-24T06:25:53;30.50;68.80
28530;DHT22;15737;49.760;6.632;2023-06-24T06:28:18;31.00;67.50
28530;DHT22;15737;49.760;6.632;2023-06-24T06:30:44;32.40;63.70
28530;DHT22;15737;49.760;6.632;2023-06-24T06:33:09;33.20;59.30
28530;DHT22;15737;49.760;6.632;2023-06-24T06:35:35;32.70;59.20
28530;DHT22;15737;49.760;6.632;2023-06-24T06:38:00;32.60;59.20
28530;DHT22;15737;49.760;6.632;2023-06-24T06:40:26;32.30;59.70
28530;DHT22;15737;49.760;6.632;2023-06-24T06:42:53;32.80;58.40
28530;DHT22;15737;49.760;6.632;2023-06-24T06:45:19;33.70;56.90
28530;DHT22;15737;49.760;6.632;2023-06-24T06:47:45;34.70;54.80
28530;DHT22;15737;49.760;6.632;2023-06-24T06:50:10;35.60;52.70
28530;DHT22;15737;49.760;6.632;2023-06-24T06:52:36;35.00;52.50
28530;DHT22;15737;49.760;6.632;2023-06-24T06:55:02;34.90;52.40
28530;DHT22;15737;49.760;6.632;2023-06-24T06:57:27;35.40;51.30
28530;DHT22;15737;49.760;6.632;2023-06-24T06:59:53;35.00;51.60
28530;DHT22;15737;49.760;6.632;2023-06-24T07:02:19;35.80;50.10
28530;DHT22;15737;49.760;6.632;2023-06-24T07:04:44;36.80;48.90
28530;DHT22;15737;49.760;6.632;2023-06-24T07:07:10;37.50;47.10
28530;DHT22;15737;49.760;6.632;2023-06-24T07:09:37;37.20;47.50
28530;DHT22;15737;49.760;6.632;2023-06-24T07:12:02;37.30;46.60
28530;DHT22;15737;49.760;6.632;2023-06-24T07:14:28;37.10;46.50
28530;DHT22;15737;49.760;6.632;2023-06-24T07:16:54;36.10;47.40
28530;DHT22;15737;49.760;6.632;2023-06-24T07:19:19;36.10;47.60
28530;DHT22;15737;49.760;6.632;2023-06-24T07:21:45;38.20;44.80
28530;DHT22;15737;49.760;6.632;2023-06-24T07:24:10;38.00;44.70
28530;DHT22;15737;49.760;6.632;2023-06-24T07:26:36;38.10;44.60
28530;DHT22;15737;49.760;6.632;2023-06-24T07:29:05;37.80;44.90
28530;DHT22;15737;49.760;6.632;2023-06-24T07:31:30;37.60;45.30
28530;DHT22;15737;49.760;6.632;2023-06-24T07:33:56;39.20;43.30
28530;DHT22;15737;49.760;6.632;2023-06-24T07:36:21;40.50;42.20
28530;DHT22;15737;49.760;6.632;2023-06-24T07:38:47;42.30;40.30
28530;DHT22;15737;49.760;6.632;2023-06-24T07:41:12;42.90;39.30
28530;DHT22;15737;49.760;6.632;2023-06-24T07:43:38;41.90;39.70
28530;DHT22;15737;49.760;6.632;2023-06-24T07:46:04;40.80;40.10
28530;DHT22;15737;49.760;6.632;2023-06-24T07:48:29;39.60;41.60
28530;DHT22;15737;49.760;6.632;2023-06-24T07:50:55;39.50;41.60
28530;DHT22;15737;49.760;6.632;2023-06-24T07:53:20;40.40;40.70
28530;DHT22;15737;49.760;6.632;2023-06-24T07:55:46;40.90;39.70
28530;DHT22;15737;49.760;6.632;2023-06-24T07:58:11;40.50;39.60
28530;DHT22;15737;49.760;6.632;2023-06-24T08:00:37;40.60;39.30
28530;DHT22;15737;49.760;6.632;2023-06-24T08:03:03;40.50;39.40
28530;DHT22;15737;49.760;6.632;2023-06-24T08:05:29;40.60;39.30
28530;DHT22;15737;49.760;6.632;2023-06-24T08:07:54;41.40;38.50
28530;DHT22;15737;49.760;6.632;2023-06-24T08:10:20;41.40;38.40
28530;DHT22;15737;49.760;6.632;2023-06-24T08:12:45;42.00;37.90
28530;DHT22;15737;49.760;6.632;2023-06-24T08:15:11;41.90;37.90
28530;DHT22;15737;49.760;6.632;2023-06-24T08:17:37;41.80;38.10
28530;DHT22;15737;49.760;6.632;2023-06-24T08:20:03;42.00;37.70
28530;DHT22;15737;49.760;6.632;2023-06-24T08:22:29;42.40;37.50
28530;DHT22;15737;49.760;6.632;2023-06-24T08:24:55;42.50;36.70
28530;DHT22;15737;49.760;6.632;2023-06-24T08:29:51;41.70;37.60
28530;DHT22;15737;49.760;6.632;2023-06-24T08:32:16;41.70;37.70
28530;DHT22;15737;49.760;6.632;2023-06-24T08:34:42;41.70;37.80
28530;DHT22;15737;49.760;6.632;2023-06-24T08:37:08;42.30;37.40
28530;DHT22;15737;49.760;6.632;2023-06-24T08:39:33;42.00;37.10
28530;DHT22;15737;49.760;6.632;2023-06-24T08:41:59;41.10;38.00
28530;DHT22;15737;49.760;6.632;2023-06-24T08:44:24;40.80;37.70
28530;DHT22;15737;49.760;6.632;2023-06-24T08:46:50;40.90;37.50
28530;DHT22;15737;49.760;6.632;2023-06-24T08:51:50;40.00;37.70
28530;DHT22;15737;49.760;6.632;2023-06-24T08:54:19;39.60;37.60
28530;DHT22;15737;49.760;6.632;2023-06-24T08:56:44;39.00;38.10
28530;DHT22;15737;49.760;6.632;2023-06-24T09:01:42;38.70;38.30
28530;DHT22;15737;49.760;6.632;2023-06-24T09:04:10;38.90;37.80
28530;DHT22;15737;49.760;6.632;2023-06-24T09:06:36;38.70;38.30
28530;DHT22;15737;49.760;6.632;2023-06-24T09:09:02;38.80;37.70
28530;DHT22;15737;49.760;6.632;2023-06-24T09:11:28;39.00;37.20
28530;DHT22;15737;49.760;6.632;2023-06-24T09:13:55;38.60;37.40
28530;DHT22;15737;49.760;6.632;2023-06-24T09:16:21;38.60;37.20
28530;DHT22;15737;49.760;6.632;2023-06-24T09:18:50;38.10;37.90
28530;DHT22;15737;49.760;6.632;2023-06-24T09:21:28;37.80;38.60
28530;DHT22;15737;49.760;6.632;2023-06-24T09:23:57;39.70;37.10
28530;DHT22;15737;49.760;6.632;2023-06-24T09:26:25;41.00;35.70
28530;DHT22;15737;49.760;6.632;2023-06-24T09:28:50;41.00;35.10
28530;DHT22;15737;49.760;6.632;2023-06-24T09:31:17;39.40;37.50
28530;DHT22;15737;49.760;6.632;2023-06-24T09:33:43;39.00;37.50
28530;DHT22;15737;49.760;6.632;2023-06-24T09:36:15;38.40;38.10
28530;DHT22;15737;49.760;6.632;2023-06-24T09:38:42;37.60;38.00
28530;DHT22;15737;49.760;6.632;2023-06-24T09:41:10;37.70;38.40
28530;DHT22;15737;49.760;6.632;2023-06-24T09:43:36;38.40;38.10
28530;DHT22;15737;49.760;6.632;2023-06-24T09:46:03;39.90;36.90
28530;DHT22;15737;49.760;6.632;2023-06-24T09:48:29;41.30;35.00
28530;DHT22;15737;49.760;6.632;2023-06-24T09:51:02;41.40;34.60
28530;DHT22;15737;49.760;6.632;2023-06-24T09:53:31;41.50;34.60
28530;DHT22;15737;49.760;6.632;2023-06-24T09:55:59;42.30;34.30
28530;DHT22;15737;49.760;6.632;2023-06-24T09:58:26;43.30;33.30
28530;DHT22;15737;49.760;6.632;2023-06-24T10:00:54;43.00;33.00
28530;DHT22;15737;49.760;6.632;2023-06-24T10:03:21;42.40;33.30
28530;DHT22;15737;49.760;6.632;2023-06-24T10:05:47;40.90;34.40
28530;DHT22;15737;49.760;6.632;2023-06-24T10:08:13;40.00;35.00
28530;DHT22;15737;49.760;6.632;2023-06-24T10:10:39;39.30;35.60
28530;DHT22;15737;49.760;6.632;2023-06-24T10:13:05;39.30;35.90
28530;DHT22;15737;49.760;6.632;2023-06-24T10:15:32;39.90;35.00
28530;DHT22;15737;49.760;6.632;2023-06-24T10:18:01;39.30;35.20
28530;DHT22;15737;49.760;6.632;2023-06-24T10:20:28;39.10;35.40
28530;DHT22;15737;49.760;6.632;2023-06-24T10:22:53;39.50;35.40
28530;DHT22;15737;49.760;6.632;2023-06-24T10:25:19;40.40;34.50
28530;DHT22;15737;49.760;6.632;2023-06-24T10:27:53;41.20;34.30
28530;DHT22;15737;49.760;6.632;2023-06-24T10:30:20;42.60;33.60
28530;DHT22;15737;49.760;6.632;2023-06-24T10:32:51;43.00;33.10
28530;DHT22;15737;49.760;6.632;2023-06-24T10:35:23;42.80;33.10
28530;DHT22;15737;49.760;6.632;2023-06-24T10:37:57;41.80;33.00
28530;DHT22;15737;49.760;6.632;2023-06-24T10:40:40;40.70;34.50
28530;DHT22;15737;49.760;6.632;2023-06-24T10:43:26;40.40;35.30
28530;DHT22;15737;49.760;6.632;2023-06-24T10:45:54;41.50;34.80
28530;DHT22;15737;49.760;6.632;2023-06-24T10:48:20;43.00;33.70
28530;DHT22;15737;49.760;6.632;2023-06-24T10:50:46;43.70;32.80
28530;DHT22;15737;49.760;6.632;2023-06-24T10:53:13;43.80;32.80
28530;DHT22;15737;49.760;6.632;2023-06-24T10:55:39;42.80;33.10
28530;DHT22;15737;49.760;6.632;2023-06-24T10:58:08;41.60;34.50
28530;DHT22;15737;49.760;6.632;2023-06-24T11:00:34;41.20;33.90
28530;DHT22;15737;49.760;6.632;2023-06-24T11:03:11;39.60;35.70
28530;DHT22;15737;49.760;6.632;2023-06-24T11:05:41;38.50;37.10
28530;DHT22;15737;49.760;6.632;2023-06-24T11:08:08;37.10;38.70
28530;DHT22;15737;49.760;6.632;2023-06-24T11:10:41;35.70;40.20
28530;DHT22;15737;49.760;6.632;2023-06-24T11:13:06;35.60;40.70
28530;DHT22;15737;49.760;6.632;2023-06-24T11:15:32;36.90;39.50
28530;DHT22;15737;49.760;6.632;2023-06-24T11:18:02;38.40;37.80
28530;DHT22;15737;49.760;6.632;2023-06-24T11:20:30;40.00;36.70
28530;DHT22;15737;49.760;6.632;2023-06-24T11:22:55;41.70;35.40
28530;DHT22;15737;49.760;6.632;2023-06-24T11:25:21;42.90;33.80
28530;DHT22;15737;49.760;6.632;2023-06-24T11:27:49;42.40;33.90
28530;DHT22;15737;49.760;6.632;2023-06-24T11:30:16;41.10;34.70
28530;DHT22;15737;49.760;6.632;2023-06-24T11:32:43;38.70;37.90
28530;DHT22;15737;49.760;6.632;2023-06-24T11:35:11;37.10;39.30
28530;DHT22;15737;49.760;6.632;2023-06-24T11:37:37;36.30;40.40
28530;DHT22;15737;49.760;6.632;2023-06-24T11:40:04;35.50;40.30
28530;DHT22;15737;49.760;6.632;2023-06-24T11:42:30;34.70;41.00
28530;DHT22;15737;49.760;6.632;2023-06-24T11:45:01;34.50;41.70
28530;DHT22;15737;49.760;6.632;2023-06-24T11:47:31;34.60;41.80
28530;DHT22;15737;49.760;6.632;2023-06-24T11:49:57;34.80;41.80
28530;DHT22;15737;49.760;6.632;2023-06-24T11:52:47;34.80;41.50
28530;DHT22;15737;49.760;6.632;2023-06-24T11:55:24;34.00;42.00
28530;DHT22;15737;49.760;6.632;2023-06-24T11:58:01;33.30;43.00
28530;DHT22;15737;49.760;6.632;2023-06-24T12:00:31;34.10;42.90
28530;DHT22;15737;49.760;6.632;2023-06-24T12:03:05;35.60;41.60
28530;DHT22;15737;49.760;6.632;2023-06-24T12:08:07;37.80;39.50
28530;DHT22;15737;49.760;6.632;2023-06-24T12:10:33;38.40;39.00
28530;DHT22;15737;49.760;6.632;2023-06-24T12:13:00;39.60;38.20
28530;DHT22;15737;49.760;6.632;2023-06-24T12:15:28;40.20;37.60
28530;DHT22;15737;49.760;6.632;2023-06-24T12:17:54;40.40;37.40
28530;DHT22;15737;49.760;6.632;2023-06-24T12:20:19;40.50;37.60
28530;DHT22;15737;49.760;6.632;2023-06-24T12:22:47;39.80;37.40
28530;DHT22;15737;49.760;6.632;2023-06-24T12:25:13;38.50;38.10
28530;DHT22;15737;49.760;6.632;2023-06-24T12:27:38;38.00;39.30
28530;DHT22;15737;49.760;6.632;2023-06-24T12:30:06;38.20;39.30
28530;DHT22;15737;49.760;6.632;2023-06-24T12:32:31;38.30;38.80
28530;DHT22;15737;49.760;6.632;2023-06-24T12:34:57;38.70;38.80
28530;DHT22;15737;49.760;6.632;2023-06-24T12:39:53;40.70;37.00
28530;DHT22;15737;49.760;6.632;2023-06-24T12:42:19;41.00;36.50
28530;DHT22;15737;49.760;6.632;2023-06-24T12:44:44;40.80;36.40
28530;DHT22;15737;49.760;6.632;2023-06-24T12:47:10;40.40;36.60
28530;DHT22;15737;49.760;6.632;2023-06-24T12:49:35;39.50;37.50
28530;DHT22;15737;49.760;6.632;2023-06-24T12:52:01;38.70;38.10
28530;DHT22;15737;49.760;6.632;2023-06-24T12:54:27;37.30;38.30
28530;DHT22;15737;49.760;6.632;2023-06-24T12:56:53;35.70;40.10
28530;DHT22;15737;49.760;6.632;2023-06-24T12:59:18;34.70;41.00
28530;DHT22;15737;49.760;6.632;2023-06-24T13:01:44;33.80;41.20
28530;DHT22;15737;49.760;6.632;2023-06-24T13:04:10;33.10;42.60
28530;DHT22;15737;49.760;6.632;2023-06-24T13:06:36;33.30;42.80
28530;DHT22;15737;49.760;6.632;2023-06-24T13:11:35;34.20;41.60
28530;DHT22;15737;49.760;6.632;2023-06-24T13:14:02;35.00;40.50
28530;DHT22;15737;49.760;6.632;2023-06-24T13:16:28;35.60;40.30
28530;DHT22;15737;49.760;6.632;2023-06-24T13:18:53;36.70;38.70
28530;DHT22;15737;49.760;6.632;2023-06-24T13:21:19;36.60;38.10
28530;DHT22;15737;49.760;6.632;2023-06-24T13:23:44;36.50;38.40
28530;DHT22;15737;49.760;6.632;2023-06-24T13:26:11;36.80;39.00
28530;DHT22;15737;49.760;6.632;2023-06-24T13:28:37;38.00;38.30
28530;DHT22;15737;49.760;6.632;2023-06-24T13:31:03;38.40;36.70
28530;DHT22;15737;49.760;6.632;2023-06-24T13:33:28;38.30;36.90
28530;DHT22;15737;49.760;6.632;2023-06-24T13:35:55;38.90;36.10
28530;DHT22;15737;49.760;6.632;2023-06-24T13:38:21;38.90;36.70
28530;DHT22;15737;49.760;6.632;2023-06-24T13:40:47;37.60;36.20
28530;DHT22;15737;49.760;6.632;2023-06-24T13:43:12;37.50;36.50
28530;DHT22;15737;49.760;6.632;2023-06-24T13:45:38;37.70;34.90
28530;DHT22;15737;49.760;6.632;2023-06-24T13:48:04;38.20;34.90
28530;DHT22;15737;49.760;6.632;2023-06-24T13:50:29;38.50;34.80
28530;DHT22;15737;49.760;6.632;2023-06-24T13:52:55;38.60;34.80
28530;DHT22;15737;49.760;6.632;2023-06-24T13:55:21;38.10;35.20
28530;DHT22;15737;49.760;6.632;2023-06-24T13:57:47;36.90;36.20
28530;DHT22;15737;49.760;6.632;2023-06-24T14:00:13;35.40;37.40
28530;DHT22;15737;49.760;6.632;2023-06-24T14:02:39;34.70;38.00
28530;DHT22;15737;49.760;6.632;2023-06-24T14:05:05;35.00;37.70
28530;DHT22;15737;49.760;6.632;2023-06-24T14:07:31;35.00;37.90
28530;DHT22;15737;49.760;6.632;2023-06-24T14:09:56;34.80;37.30
28530;DHT22;15737;49.760;6.632;2023-06-24T14:12:22;34.10;38.20
28530;DHT22;15737;49.760;6.632;2023-06-24T14:14:48;33.00;39.20
28530;DHT22;15737;49.760;6.632;2023-06-24T14:17:13;32.60;39.90
28530;DHT22;15737;49.760;6.632;2023-06-24T14:19:39;32.50;40.10
28530;DHT22;15737;49.760;6.632;2023-06-24T14:22:07;32.60;40.80
28530;DHT22;15737;49.760;6.632;2023-06-24T14:24:34;33.50;40.20
28530;DHT22;15737;49.760;6.632;2023-06-24T14:26:59;34.50;38.80
28530;DHT22;15737;49.760;6.632;2023-06-24T14:29:25;34.20;38.70
28530;DHT22;15737;49.760;6.632;2023-06-24T14:31:51;33.80;39.00
28530;DHT22;15737;49.760;6.632;2023-06-24T14:34:17;33.30;39.30
28530;DHT22;15737;49.760;6.632;2023-06-24T14:36:43;32.90;39.70
28530;DHT22;15737;49.760;6.632;2023-06-24T14:39:09;32.30;40.30
28530;DHT22;15737;49.760;6.632;2023-06-24T14:41:34;32.40;40.60
28530;DHT22;15737;49.760;6.632;2023-06-24T14:44:00;32.80;40.10
28530;DHT22;15737;49.760;6.632;2023-06-24T14:46:26;32.70;40.20
28530;DHT22;15737;49.760;6.632;2023-06-24T14:48:51;32.70;40.00
28530;DHT22;15737;49.760;6.632;2023-06-24T14:51:17;32.70;39.10
28530;DHT22;15737;49.760;6.632;2023-06-24T14:53:42;32.70;39.50
28530;DHT22;15737;49.760;6.632;2023-06-24T14:56:08;33.00;38.80
28530;DHT22;15737;49.760;6.632;2023-06-24T14:58:33;32.90;38.60
28530;DHT22;15737;49.760;6.632;2023-06-24T15:00:59;33.10;38.70
28530;DHT22;15737;49.760;6.632;2023-06-24T15:03:24;32.90;38.50
28530;DHT22;15737;49.760;6.632;2023-06-24T15:05:50;32.20;39.10
28530;DHT22;15737;49.760;6.632;2023-06-24T15:08:15;31.70;40.00
28530;DHT22;15737;49.760;6.632;2023-06-24T15:10:41;31.70;39.90
28530;DHT22;15737;49.760;6.632;2023-06-24T15:13:06;31.40;40.60
28530;DHT22;15737;49.760;6.632;2023-06-24T15:15:32;31.30;41.00
28530;DHT22;15737;49.760;6.632;2023-06-24T15:17:57;31.30;39.80
28530;DHT22;15737;49.760;6.632;2023-06-24T15:20:25;31.90;39.90
28530;DHT22;15737;49.760;6.632;2023-06-24T15:22:50;33.30;38.80
28530;DHT22;15737;49.760;6.632;2023-06-24T15:25:16;34.40;37.80
28530;DHT22;15737;49.760;6.632;2023-06-24T15:27:42;35.50;37.00
28530;DHT22;15737;49.760;6.632;2023-06-24T15:30:08;35.90;36.30
28530;DHT22;15737;49.760;6.632;2023-06-24T15:32:34;36.30;35.90
28530;DHT22;15737;49.760;6.632;2023-06-24T15:35:02;36.40;36.10
28530;DHT22;15737;49.760;6.632;2023-06-24T15:37:28;36.50;35.80
28530;DHT22;15737;49.760;6.632;2023-06-24T15:39:55;36.40;35.40
28530;DHT22;15737;49.760;6.632;2023-06-24T15:42:20;36.00;35.70
28530;DHT22;15737;49.760;6.632;2023-06-24T15:44:46;36.20;35.50
28530;DHT22;15737;49.760;6.632;2023-06-24T15:47:11;36.20;35.90
28530;DHT22;15737;49.760;6.632;2023-06-24T15:49:37;36.30;36.10
28530;DHT22;15737;49.760;6.632;2023-06-24T15:52:02;36.60;35.90
28530;DHT22;15737;49.760;6.632;2023-06-24T15:54:28;36.50;36.00
28530;DHT22;15737;49.760;6.632;2023-06-24T15:56:53;36.30;36.20